createdAt,value
2023-04-22T00:02:16.953Z,66.00
2023-04-22T00:04:46.483Z,66.00
2023-04-22T00:07:14.692Z,66.10
2023-04-22T00:09:41.922Z,66.40
2023-04-22T00:12:09.292Z,66.30
2023-04-22T00:14:35.978Z,66.40
2023-04-22T00:17:02.842Z,66.40
2023-04-22T00:19:29.890Z,66.30
2023-04-22T00:21:56.532Z,66.40
2023-04-22T00:24:23.118Z,66.40
2023-04-22T00:26:49.777Z,66.50
2023-04-22T00:29:16.406Z,66.50
2023-04-22T00:31:43.040Z,66.50
2023-04-22T00:34:09.810Z,66.40
2023-04-22T00:36:36.484Z,66.40
2023-04-22T00:39:03.247Z,66.40
2023-04-22T00:41:31.218Z,66.40
2023-04-22T00:43:59.811Z,66.30
2023-04-22T00:46:27.168Z,66.30
2023-04-22T00:48:54.208Z,66.20
2023-04-22T00:51:20.882Z,66.20
2023-04-22T00:53:47.716Z,66.20
2023-04-22T00:56:14.474Z,66.20
2023-04-22T00:58:41.358Z,66.20
2023-04-22T01:01:08.084Z,66.20
2023-04-22T01:03:38.752Z,66.30
2023-04-22T01:06:05.675Z,66.40
2023-04-22T01:08:33.117Z,66.30
2023-04-22T01:11:00.152Z,66.40
2023-04-22T01:13:26.946Z,66.20
2023-04-22T01:15:54.768Z,66.30
2023-04-22T01:18:21.965Z,66.30
2023-04-22T01:20:48.965Z,66.40
2023-04-22T01:23:22.301Z,66.30
2023-04-22T01:25:49.487Z,66.40
2023-04-22T01:28:17.020Z,66.40
2023-04-22T01:30:44.528Z,66.30
2023-04-22T01:33:11.997Z,66.30
2023-04-22T01:35:38.985Z,66.20
2023-04-22T01:38:10.041Z,66.30
2023-04-22T01:40:38.245Z,66.40
2023-04-22T01:43:05.255Z,66.40
2023-04-22T01:45:31.953Z,66.30
2023-04-22T01:47:58.657Z,66.40
2023-04-22T01:50:25.436Z,66.40
2023-04-22T01:52:52.247Z,66.40
2023-04-22T01:55:18.905Z,66.40
2023-04-22T01:57:45.639Z,66.40
2023-04-22T02:00:12.703Z,66.50
2023-04-22T02:02:39.569Z,66.60
2023-04-22T02:05:10.157Z,66.70
2023-04-22T02:07:38.132Z,66.70
2023-04-22T02:10:06.060Z,66.60
2023-04-22T02:12:32.716Z,66.70
2023-04-22T02:14:59.400Z,66.70
2023-04-22T02:17:26.411Z,66.70
2023-04-22T02:19:53.293Z,66.70
2023-04-22T02:22:20.093Z,66.70
2023-04-22T02:24:46.901Z,66.70
2023-04-22T02:27:13.534Z,66.70
2023-04-22T02:29:40.457Z,66.80
2023-04-22T02:32:07.544Z,66.80
2023-04-22T02:34:34.170Z,66.80
2023-04-22T02:37:00.990Z,66.90
2023-04-22T02:39:27.695Z,67.00
2023-04-22T02:41:54.636Z,66.90
2023-04-22T02:44:21.219Z,66.80
2023-04-22T02:46:47.925Z,66.80
2023-04-22T02:49:14.600Z,66.80
2023-04-22T02:51:41.235Z,66.90
2023-04-22T02:54:07.894Z,66.90
2023-04-22T02:56:34.562Z,66.90
2023-04-22T02:59:01.184Z,66.80
2023-04-22T03:01:27.903Z,66.80
2023-04-22T03:03:54.850Z,66.80
2023-04-22T03:06:21.740Z,66.80
2023-04-22T03:08:48.316Z,66.70
2023-04-22T03:11:14.964Z,66.80
2023-04-22T03:13:41.664Z,66.70
2023-04-22T03:16:09.325Z,66.70
2023-04-22T03:18:36.026Z,66.70
2023-04-22T03:21:02.889Z,66.70
2023-04-22T03:23:29.587Z,66.70
2023-04-22T03:25:56.210Z,66.70
2023-04-22T03:28:22.848Z,66.70
2023-04-22T03:30:49.518Z,66.70
2023-04-22T03:33:16.731Z,66.70
2023-04-22T03:35:43.424Z,66.70
2023-04-22T03:38:10.310Z,66.70
2023-04-22T03:40:36.964Z,66.70
2023-04-22T03:43:03.709Z,66.70
2023-04-22T03:45:30.461Z,66.70
2023-04-22T03:47:57.181Z,66.80
2023-04-22T03:50:23.943Z,66.70
2023-04-22T03:52:50.958Z,66.80
2023-04-22T03:55:17.736Z,66.80
2023-04-22T03:57:44.400Z,66.70
2023-04-22T04:00:11.473Z,66.80
2023-04-22T04:02:38.199Z,66.80
2023-04-22T04:05:05.564Z,66.80
2023-04-22T04:07:32.299Z,66.80
2023-04-22T04:09:58.906Z,66.80
2023-04-22T04:12:25.671Z,66.80
2023-04-22T04:14:52.331Z,66.80
2023-04-22T04:17:19.041Z,66.90
2023-04-22T04:19:45.796Z,66.90
2023-04-22T04:22:12.433Z,66.90
2023-04-22T04:24:42.083Z,67.00
2023-04-22T04:27:09.073Z,67.00
2023-04-22T04:29:36.893Z,67.00
2023-04-22T04:32:04.925Z,67.00
2023-04-22T04:34:34.669Z,67.10
2023-04-22T04:37:01.408Z,67.00
2023-04-22T04:39:29.210Z,67.10
2023-04-22T04:41:58.583Z,67.20
2023-04-22T04:44:28.118Z,67.20
2023-04-22T04:46:54.954Z,67.30
2023-04-22T04:49:21.972Z,67.30
2023-04-22T04:51:49.098Z,67.30
2023-04-22T04:54:16.161Z,67.20
2023-04-22T04:56:43.179Z,67.20
2023-04-22T04:59:09.896Z,67.10
2023-04-22T05:01:36.574Z,67.20
2023-04-22T05:04:03.544Z,67.20
2023-04-22T05:06:31.435Z,67.20
2023-04-22T05:08:58.336Z,67.20
2023-04-22T05:11:25.186Z,67.20
2023-04-22T05:13:51.817Z,67.10
2023-04-22T05:16:18.461Z,67.10
2023-04-22T05:18:45.362Z,67.00
2023-04-22T05:21:11.968Z,67.00
2023-04-22T05:23:39.472Z,67.00
2023-04-22T05:26:06.186Z,67.10
2023-04-22T05:28:32.901Z,67.00
2023-04-22T05:30:59.560Z,67.00
2023-04-22T05:33:26.214Z,67.00
2023-04-22T05:35:53.616Z,67.10
2023-04-22T05:38:20.421Z,67.10
2023-04-22T05:40:47.157Z,67.10
2023-04-22T05:43:14.067Z,67.20
2023-04-22T05:45:40.858Z,67.20
2023-04-22T05:48:07.767Z,67.20
2023-04-22T05:50:34.593Z,67.30
2023-04-22T05:53:01.193Z,67.20
2023-04-22T05:55:27.941Z,67.20
2023-04-22T05:57:54.634Z,67.20
2023-04-22T06:00:21.303Z,67.30
2023-04-22T06:02:48.066Z,67.30
2023-04-22T06:05:14.968Z,67.30
2023-04-22T06:07:41.692Z,67.50
2023-04-22T06:10:09.143Z,67.50
2023-04-22T06:12:36.169Z,67.40
2023-04-22T06:15:03.149Z,67.40
2023-04-22T06:17:29.802Z,67.40
2023-04-22T06:19:56.529Z,67.40
2023-04-22T06:22:23.259Z,67.40
2023-04-22T06:24:49.976Z,67.50
2023-04-22T06:27:16.596Z,67.20
2023-04-22T06:29:43.337Z,67.40
2023-04-22T06:32:09.924Z,67.30
2023-04-22T06:34:38.590Z,67.20
2023-04-22T06:37:06.197Z,67.20
2023-04-22T06:39:32.847Z,67.10
2023-04-22T06:41:59.605Z,67.30
2023-04-22T06:44:26.376Z,67.00
2023-04-22T06:46:53.777Z,67.20
2023-04-22T06:49:21.859Z,67.00
2023-04-22T06:51:48.562Z,67.00
2023-04-22T06:54:15.186Z,67.10
2023-04-22T06:56:42.007Z,67.20
2023-04-22T06:59:08.795Z,67.20
2023-04-22T07:01:35.487Z,67.20
2023-04-22T07:04:02.231Z,67.10
2023-04-22T07:06:29.139Z,66.90
2023-04-22T07:08:55.901Z,67.20
2023-04-22T07:11:22.541Z,67.20
2023-04-22T07:13:49.176Z,67.40
2023-04-22T07:16:15.869Z,67.30
2023-04-22T07:18:42.498Z,67.50
2023-04-22T07:21:09.134Z,67.90
2023-04-22T07:23:35.890Z,67.80
2023-04-22T07:26:02.862Z,67.90
2023-04-22T07:28:29.683Z,67.80
2023-04-22T07:30:56.376Z,67.90
2023-04-22T07:33:23.177Z,67.90
2023-04-22T07:35:49.946Z,67.90
2023-04-22T07:38:16.746Z,67.80
2023-04-22T07:40:43.814Z,67.60
2023-04-22T07:43:10.533Z,67.60
2023-04-22T07:45:37.313Z,67.80
2023-04-22T07:48:04.848Z,67.80
2023-04-22T07:50:31.648Z,68.10
2023-04-22T07:52:58.417Z,68.30
2023-04-22T07:55:25.057Z,68.30
2023-04-22T07:57:51.764Z,68.60
2023-04-22T08:00:18.518Z,68.70
2023-04-22T08:02:46.825Z,68.70
2023-04-22T08:05:13.634Z,68.70
2023-04-22T08:07:40.457Z,68.70
2023-04-22T08:10:07.723Z,68.80
2023-04-22T08:12:35.083Z,68.90
2023-04-22T08:15:01.797Z,68.70
2023-04-22T08:17:28.560Z,68.70
2023-04-22T08:19:55.339Z,68.70
2023-04-22T08:22:23.811Z,68.70
2023-04-22T08:24:50.785Z,68.60
2023-04-22T08:27:19.204Z,68.70
2023-04-22T08:29:45.879Z,68.60
2023-04-22T08:32:12.574Z,68.60
2023-04-22T08:34:39.460Z,68.60
2023-04-22T08:37:06.143Z,68.60
2023-04-22T08:39:32.862Z,68.60
2023-04-22T08:41:59.713Z,68.60
2023-04-22T08:44:27.293Z,68.60
2023-04-22T08:46:55.858Z,68.60
2023-04-22T08:49:24.425Z,68.50
2023-04-22T08:51:51.209Z,68.30
2023-04-22T08:54:18.197Z,68.30
2023-04-22T08:56:45.800Z,68.30
2023-04-22T08:59:13.471Z,68.20
2023-04-22T09:01:41.195Z,67.70
2023-04-22T09:04:10.590Z,67.40
2023-04-22T09:06:38.806Z,67.30
2023-04-22T09:09:05.665Z,67.20
2023-04-22T09:11:33.645Z,67.10
2023-04-22T09:14:00.310Z,66.40
2023-04-22T09:16:26.981Z,66.10
2023-04-22T09:18:53.672Z,66.70
2023-04-22T09:21:20.348Z,65.70
2023-04-22T09:23:53.717Z,66.20
2023-04-22T09:26:23.419Z,65.60
2023-04-22T09:28:51.065Z,66.30
2023-04-22T09:31:18.321Z,66.30
2023-04-22T09:33:53.778Z,66.40
2023-04-22T09:36:27.602Z,66.40
2023-04-22T09:38:56.281Z,66.50
2023-04-22T09:41:35.376Z,66.80
2023-04-22T09:44:03.959Z,66.30
2023-04-22T09:46:31.781Z,65.90
2023-04-22T09:48:59.738Z,66.00
2023-04-22T09:51:30.328Z,66.50
2023-04-22T09:53:59.229Z,66.80
2023-04-22T09:56:50.809Z,66.40
2023-04-22T09:59:23.007Z,66.60
2023-04-22T10:01:53.212Z,66.40
2023-04-22T10:04:25.364Z,66.20
2023-04-22T10:06:53.114Z,66.80
2023-04-22T10:09:21.719Z,66.60
2023-04-22T10:11:50.831Z,66.70
2023-04-22T10:14:17.590Z,66.30
2023-04-22T10:16:46.990Z,66.40
2023-04-22T10:19:24.020Z,65.90
2023-04-22T10:21:55.651Z,66.00
2023-04-22T10:24:25.034Z,66.20
2023-04-22T10:26:59.701Z,66.30
2023-04-22T10:29:27.742Z,66.00
2023-04-22T10:32:07.939Z,65.60
2023-04-22T10:34:38.890Z,65.30
2023-04-22T10:37:09.040Z,65.60
2023-04-22T10:39:35.755Z,64.70
2023-04-22T10:42:10.945Z,64.80
2023-04-22T10:44:53.855Z,64.40
2023-04-22T10:47:29.868Z,64.70
2023-04-22T10:50:24.639Z,64.10
2023-04-22T10:53:18.616Z,65.30
2023-04-22T10:55:52.988Z,64.90
2023-04-22T10:58:20.675Z,65.00
2023-04-22T11:00:54.268Z,65.00
2023-04-22T11:03:29.617Z,64.50
2023-04-22T11:06:22.089Z,64.40
2023-04-22T11:08:50.233Z,64.90
2023-04-22T11:11:18.611Z,64.10
2023-04-22T11:13:47.396Z,64.00
2023-04-22T11:16:14.257Z,64.30
2023-04-22T11:18:41.103Z,64.20
2023-04-22T11:21:08.743Z,64.80
2023-04-22T11:23:36.633Z,64.60
2023-04-22T11:26:05.726Z,64.70
2023-04-22T11:28:33.016Z,64.60
2023-04-22T11:31:09.891Z,64.50
2023-04-22T11:33:39.105Z,64.70
2023-04-22T11:36:10.725Z,64.60
2023-04-22T11:38:37.516Z,64.50
2023-04-22T11:41:05.084Z,64.80
2023-04-22T11:43:31.716Z,64.90
2023-04-22T11:45:58.571Z,64.80
2023-04-22T11:48:25.250Z,65.00
2023-04-22T11:51:11.673Z,64.90
2023-04-22T11:53:40.121Z,65.00
2023-04-22T11:56:06.910Z,64.80
2023-04-22T11:58:33.562Z,65.00
2023-04-22T12:01:00.699Z,65.00
2023-04-22T12:03:31.139Z,65.10
2023-04-22T12:06:03.130Z,65.10
2023-04-22T12:08:34.108Z,65.20
2023-04-22T12:11:04.323Z,65.30
2023-04-22T12:13:38.282Z,65.30
2023-04-22T12:16:14.192Z,65.50
2023-04-22T12:19:03.457Z,65.60
2023-04-22T12:21:32.197Z,65.80
2023-04-22T12:24:01.059Z,65.80
2023-04-22T12:26:28.233Z,65.90
2023-04-22T12:28:57.752Z,66.00
2023-04-22T12:31:24.879Z,66.10
2023-04-22T12:33:52.220Z,66.00
2023-04-22T12:36:23.530Z,66.00
2023-04-22T12:38:51.194Z,65.90
2023-04-22T12:41:17.970Z,65.80
2023-04-22T12:43:44.829Z,65.80
2023-04-22T12:46:11.555Z,65.80
2023-04-22T12:48:38.422Z,65.80
2023-04-22T12:51:06.578Z,66.00
2023-04-22T12:53:33.483Z,66.00
2023-04-22T12:56:00.255Z,66.00
2023-04-22T12:58:26.989Z,66.10
2023-04-22T13:00:53.686Z,66.00
2023-04-22T13:03:20.779Z,66.00
2023-04-22T13:05:47.857Z,66.00
2023-04-22T13:08:14.802Z,66.00
2023-04-22T13:10:41.563Z,65.90
2023-04-22T13:15:39.012Z,65.90
2023-04-22T13:18:06.122Z,66.00
2023-04-22T13:20:32.989Z,65.90
2023-04-22T13:22:59.694Z,65.90
2023-04-22T13:25:26.437Z,65.90
2023-04-22T13:27:53.125Z,65.80
2023-04-22T13:30:20.087Z,65.80
2023-04-22T13:32:46.993Z,65.80
2023-04-22T13:35:13.758Z,65.70
2023-04-22T13:37:40.498Z,65.70
2023-04-22T13:40:08.286Z,65.70
2023-04-22T13:42:35.270Z,65.70
2023-04-22T13:45:01.915Z,65.60
2023-04-22T13:47:28.621Z,65.60
2023-04-22T13:49:55.397Z,65.60
2023-04-22T13:52:22.130Z,65.50
2023-04-22T13:54:48.843Z,65.50
2023-04-22T13:57:15.545Z,65.50
2023-04-22T13:59:42.471Z,65.40
2023-04-22T14:02:09.518Z,65.50
2023-04-22T14:04:36.418Z,65.40
2023-04-22T14:07:03.903Z,65.40
2023-04-22T14:09:30.703Z,65.30
2023-04-22T14:11:57.467Z,65.30
2023-04-22T14:14:24.217Z,65.40
2023-04-22T14:16:51.793Z,65.40
2023-04-22T14:19:18.694Z,65.40
2023-04-22T14:21:45.683Z,65.30
2023-04-22T14:24:12.501Z,65.40
2023-04-22T14:26:39.268Z,65.40
2023-04-22T14:29:06.009Z,65.40
2023-04-22T14:31:32.657Z,65.40
2023-04-22T14:33:59.322Z,65.40
2023-04-22T14:36:26.800Z,65.50
2023-04-22T14:38:53.480Z,65.40
2023-04-22T14:41:21.329Z,65.40
2023-04-22T14:43:48.031Z,65.30
2023-04-22T14:46:14.762Z,65.30
2023-04-22T14:48:41.550Z,65.30
2023-04-22T14:51:08.259Z,65.30
2023-04-22T14:53:34.950Z,65.30
2023-04-22T14:56:01.607Z,65.30
2023-04-22T14:58:31.432Z,65.30
2023-04-22T15:01:01.373Z,65.30
2023-04-22T15:03:28.199Z,65.40
2023-04-22T15:05:55.617Z,65.20
2023-04-22T15:08:25.087Z,65.10
2023-04-22T15:10:51.747Z,65.10
2023-04-22T15:13:19.516Z,65.00
2023-04-22T15:15:46.733Z,65.00
2023-04-22T15:18:13.516Z,65.10
2023-04-22T15:20:40.488Z,65.00
2023-04-22T15:23:07.098Z,65.00
2023-04-22T15:25:33.821Z,64.90
2023-04-22T15:28:00.592Z,64.90
2023-04-22T15:30:27.320Z,64.80
2023-04-22T15:32:54.042Z,64.80
2023-04-22T15:35:24.517Z,64.80
2023-04-22T15:37:52.534Z,64.80
2023-04-22T15:40:19.286Z,64.80
2023-04-22T15:42:45.929Z,64.80
2023-04-22T15:45:12.597Z,64.80
2023-04-22T15:47:41.140Z,64.90
2023-04-22T15:50:09.661Z,64.90
2023-04-22T15:52:38.011Z,64.90
2023-04-22T15:55:07.451Z,65.00
2023-04-22T15:57:35.243Z,65.00
2023-04-22T16:00:12.025Z,65.10
2023-04-22T16:02:40.595Z,65.10
2023-04-22T16:05:08.252Z,65.20
2023-04-22T16:07:35.226Z,65.20
2023-04-22T16:10:02.300Z,65.30
2023-04-22T16:12:29.597Z,65.30
2023-04-22T16:14:56.808Z,65.30
2023-04-22T16:17:23.698Z,65.40
2023-04-22T16:19:50.494Z,65.50
2023-04-22T16:22:17.089Z,65.50
2023-04-22T16:24:44.437Z,65.50
2023-04-22T16:27:16.133Z,65.60
2023-04-22T16:29:43.359Z,65.80
2023-04-22T16:32:10.440Z,65.90
2023-04-22T16:34:38.060Z,65.90
2023-04-22T16:37:04.862Z,66.10
2023-04-22T16:39:31.558Z,66.10
2023-04-22T16:41:59.110Z,66.20
2023-04-22T16:44:25.982Z,66.40
2023-04-22T16:46:52.730Z,66.30
2023-04-22T16:49:19.643Z,66.40
2023-04-22T16:51:46.470Z,66.40
2023-04-22T16:54:13.210Z,66.40
2023-04-22T16:56:39.968Z,66.40
2023-04-22T16:59:06.653Z,66.40
2023-04-22T17:01:33.518Z,66.30
2023-04-22T17:04:00.905Z,66.20
2023-04-22T17:06:28.310Z,66.20
2023-04-22T17:08:55.068Z,66.20
2023-04-22T17:11:22.908Z,66.10
2023-04-22T17:13:49.691Z,66.10
2023-04-22T17:16:16.371Z,66.00
2023-04-22T17:18:43.236Z,66.00
2023-04-22T17:21:10.121Z,65.90
2023-04-22T17:23:36.826Z,65.80
2023-04-22T17:26:03.431Z,65.70
2023-04-22T17:28:30.251Z,65.60
2023-04-22T17:30:56.999Z,65.50
2023-04-22T17:33:23.648Z,65.50
2023-04-22T17:35:50.391Z,65.40
2023-04-22T17:38:17.079Z,65.50
2023-04-22T17:40:44.753Z,65.40
2023-04-22T17:43:11.444Z,65.40
2023-04-22T17:45:38.072Z,65.30
2023-04-22T17:48:04.727Z,65.20
2023-04-22T17:50:31.412Z,65.20
2023-04-22T17:52:58.151Z,65.20
2023-04-22T17:55:25.115Z,65.20
2023-04-22T17:57:51.987Z,65.20
2023-04-22T18:00:18.880Z,65.00
2023-04-22T18:02:46.142Z,65.10
2023-04-22T18:05:13.012Z,65.10
2023-04-22T20:03:20.130Z,64.70
2023-04-22T20:05:49.035Z,66.00
2023-04-22T20:08:19.428Z,66.50
2023-04-22T20:10:49.168Z,66.70
2023-04-22T20:13:16.487Z,66.80
2023-04-22T20:15:43.347Z,66.90
2023-04-22T20:18:10.653Z,66.90
2023-04-22T20:20:38.628Z,67.00
2023-04-22T20:23:10.286Z,67.00
2023-04-22T20:25:39.732Z,67.00
2023-04-22T20:28:07.275Z,67.00
2023-04-22T20:30:34.486Z,67.00
2023-04-22T20:33:01.360Z,67.10
2023-04-22T20:35:28.519Z,67.20
2023-04-22T20:37:59.298Z,67.20
2023-04-22T20:40:27.147Z,67.20
2023-04-22T20:42:57.136Z,67.20
2023-04-22T20:45:24.719Z,67.30
2023-04-22T20:47:52.010Z,67.30
2023-04-22T20:50:19.010Z,67.30
2023-04-22T20:52:45.673Z,67.30
2023-04-22T20:55:12.560Z,67.20
2023-04-22T20:57:39.387Z,67.30
2023-04-22T21:00:07.314Z,67.30
2023-04-22T21:02:35.293Z,67.40
2023-04-22T21:05:03.864Z,67.40
2023-04-22T21:07:30.934Z,67.40
2023-04-22T21:09:58.383Z,67.50
2023-04-22T21:12:25.743Z,67.60
2023-04-22T21:14:52.776Z,67.50
2023-04-22T21:17:22.765Z,67.50
2023-04-22T21:19:50.742Z,67.60
2023-04-22T21:22:21.105Z,67.50
2023-04-22T21:24:52.090Z,67.50
2023-04-22T21:27:22.082Z,67.70
2023-04-22T21:29:49.647Z,67.60
2023-04-22T21:32:17.439Z,67.50
2023-04-22T21:34:44.907Z,67.60
2023-04-22T21:37:12.641Z,67.60
2023-04-22T21:39:40.393Z,67.60
2023-04-22T21:42:09.834Z,67.60
2023-04-22T21:44:37.766Z,67.70
2023-04-22T21:47:05.486Z,67.70
2023-04-22T21:49:32.214Z,67.80
2023-04-22T21:51:59.113Z,67.70
2023-04-22T21:54:25.807Z,67.70
2023-04-22T21:56:52.547Z,67.70
2023-04-22T21:59:19.283Z,67.70
2023-04-22T22:01:45.978Z,67.80
2023-04-22T22:04:15.382Z,67.80
2023-04-22T22:06:43.361Z,67.80
2023-04-22T22:09:11.569Z,67.80
2023-04-22T22:11:38.374Z,67.80
2023-04-22T22:14:05.148Z,67.90
2023-04-22T22:16:31.956Z,67.90
2023-04-22T22:18:58.735Z,67.90
2023-04-22T22:21:25.385Z,67.90
2023-04-22T22:23:52.207Z,68.00
2023-04-22T22:26:19.260Z,67.90
2023-04-22T22:28:45.934Z,68.00
2023-04-22T22:31:12.662Z,68.00
2023-04-22T22:33:39.338Z,68.00
2023-04-22T22:36:06.408Z,68.10
2023-04-22T22:38:33.124Z,68.10
2023-04-22T22:40:59.806Z,68.20
2023-04-22T22:43:26.855Z,68.20
2023-04-22T22:45:53.591Z,68.20
2023-04-22T22:48:20.388Z,68.20
2023-04-22T22:50:47.134Z,68.20
2023-04-22T22:53:13.938Z,68.20
2023-04-22T22:55:40.707Z,68.20
2023-04-22T22:58:07.353Z,68.30
2023-04-22T23:00:34.019Z,68.30
2023-04-22T23:03:00.891Z,68.30
2023-04-22T23:05:27.910Z,68.30
2023-04-22T23:07:54.501Z,68.30
2023-04-22T23:10:21.300Z,68.30
2023-04-22T23:12:48.021Z,68.30
2023-04-22T23:15:14.612Z,68.30
2023-04-22T23:17:41.505Z,68.20
2023-04-22T23:20:11.969Z,68.30
2023-04-22T23:22:42.565Z,68.30
2023-04-22T23:25:10.158Z,68.40
2023-04-22T23:27:37.155Z,68.20
2023-04-22T23:30:04.729Z,68.30
2023-04-22T23:32:33.032Z,68.30
2023-04-22T23:35:01.718Z,68.20
2023-04-22T23:37:29.486Z,68.20
2023-04-22T23:39:56.304Z,68.20
2023-04-22T23:42:23.059Z,68.20
2023-04-22T23:44:49.841Z,68.20
2023-04-22T23:47:16.948Z,68.20
2023-04-22T23:49:43.859Z,68.10
2023-04-22T23:52:12.684Z,68.10
2023-04-22T23:54:40.265Z,68.10
2023-04-22T23:57:07.455Z,68.10
2023-04-22T23:59:34.335Z,68.10
